Time;durP1;ratioP1;P1;durP2;ratioP2;P2;SDS_P1;SDS_P2;PMS_P1;PMS_P2;Temp;Humidity;BMP_temperature;BMP_pressure;BME280_temperature;BME280_humidity;BME280_pressure;Samples;Min_cycle;Max_cycle;Signal;HPM_P1;HPM_P2
2023/12/23 00:02:14;;;;;;;2.87;1.37;;;;;;;1.89;100.00;98020.78;1417811;90;21821;-80
2023/12/23 00:04:40;;;;;;;2.83;1.63;;;;;;;1.90;100.00;98025.50;1434674;90;22001;-78
2023/12/23 00:07:07;;;;;;;3.33;1.30;;;;;;;1.93;100.00;98033.87;1453917;88;21834;-80
2023/12/23 00:09:33;;;;;;;4.90;2.20;;;;;;;1.94;100.00;98056.36;1457840;88;22103;-80
2023/12/23 00:11:59;;;;;;;5.90;1.90;;;;;;;1.94;100.00;98056.36;1453589;89;22788;-79
2023/12/23 00:14:25;;;;;;;1.60;1.00;;;;;;;1.99;100.00;98050.70;1455050;89;21902;-79
2023/12/23 00:16:52;;;;;;;3.70;1.37;;;;;;;1.99;100.00;98046.30;1450141;90;21909;-79
2023/12/23 00:19:18;;;;;;;3.37;1.40;;;;;;;2.05;100.00;98056.63;1434906;90;21951;-80
2023/12/23 00:21:44;;;;;;;2.83;1.50;;;;;;;2.05;100.00;98056.63;1427347;91;22815;-79
2023/12/23 00:24:10;;;;;;;2.40;1.60;;;;;;;2.06;100.00;98056.13;1448350;89;21982;-79
2023/12/23 00:26:36;;;;;;;2.10;1.33;;;;;;;2.07;100.00;98058.57;1461919;88;22057;-77
2023/12/23 00:29:02;;;;;;;2.10;1.20;;;;;;;2.07;100.00;98079.45;1444943;89;22073;-79
2023/12/23 00:31:28;;;;;;;7.93;1.77;;;;;;;2.11;100.00;98074.77;1442355;89;22232;-79
2023/12/23 00:33:54;;;;;;;4.30;1.30;;;;;;;2.11;100.00;98056.50;1455176;89;22360;-78
2023/12/23 00:36:21;;;;;;;2.37;1.17;;;;;;;2.11;100.00;98056.50;1459047;89;23048;-78
2023/12/23 00:38:47;;;;;;;2.80;1.30;;;;;;;2.12;100.00;98061.55;1456468;89;22562;-79
2023/12/23 00:41:13;;;;;;;2.23;1.50;;;;;;;2.12;100.00;98047.20;1459706;89;22065;-78
2023/12/23 00:43:39;;;;;;;3.40;1.60;;;;;;;2.12;100.00;98068.08;1450844;89;23213;-79
2023/12/23 00:46:10;;;;;;;1.93;0.97;;;;;;;2.16;100.00;98056.87;1460575;89;22604;-79
2023/12/23 00:48:37;;;;;;;2.47;0.88;;;;;;;2.16;100.00;98056.87;1443824;89;22937;-80
2023/12/23 00:51:05;;;;;;;2.87;0.93;;;;;;;2.18;100.00;98047.89;1458569;89;21333;-80
2023/12/23 00:53:31;;;;;;;0.83;0.70;;;;;;;2.13;100.00;98037.12;1445068;89;22123;-80
2023/12/23 00:55:57;;;;;;;1.50;0.90;;;;;;;2.21;100.00;98043.67;1451439;89;22885;-80
2023/12/23 00:58:24;;;;;;;3.63;1.23;;;;;;;2.21;100.00;98043.67;1439450;90;21803;-79
2023/12/23 01:00:50;;;;;;;2.90;1.83;;;;;;;2.21;100.00;98031.11;1450504;89;22744;-80
2023/12/23 01:03:16;;;;;;;2.47;1.37;;;;;;;2.21;100.00;98031.11;1427947;90;22987;-79
2023/12/23 01:05:42;;;;;;;1.87;1.17;;;;;;;2.23;100.00;98037.83;1448872;90;21916;-80
2023/12/23 01:08:09;;;;;;;2.73;1.90;;;;;;;2.25;100.00;98051.55;1455127;89;22909;-80
2023/12/23 01:10:35;;;;;;;1.70;1.10;;;;;;;2.26;100.00;98045.34;1447446;89;22021;-79
2023/12/23 01:13:01;;;;;;;2.03;1.60;;;;;;;2.26;100.00;98043.23;1436164;90;22129;-79
2023/12/23 01:15:27;;;;;;;2.30;1.07;;;;;;;2.25;100.00;98064.59;1450514;89;22046;-80
2023/12/23 01:17:54;;;;;;;1.57;1.30;;;;;;;2.19;100.00;98063.91;1452381;88;22036;-79
2023/12/23 01:20:20;;;;;;;1.60;0.90;;;;;;;2.23;100.00;98079.58;1454270;89;22080;-80
2023/12/23 01:22:47;;;;;;;1.27;0.80;;;;;;;2.25;100.00;98074.22;1450967;89;21922;-79
2023/12/23 01:25:13;;;;;;;3.30;1.47;;;;;;;2.25;100.00;98074.22;1453749;89;21936;-78
2023/12/23 01:27:39;;;;;;;2.60;1.10;;;;;;;2.24;100.00;98073.41;1453170;89;23347;-79
2023/12/23 01:30:07;;;;;;;1.33;1.17;;;;;;;2.20;100.00;98066.84;1437483;90;22892;-79
2023/12/23 01:32:34;;;;;;;1.87;1.63;;;;;;;2.22;100.00;98061.48;1457047;89;22055;-79
2023/12/23 01:35:00;;;;;;;1.53;0.80;;;;;;;2.25;100.00;98069.00;1444866;88;22086;-79
2023/12/23 01:37:26;;;;;;;1.53;1.17;;;;;;;2.25;100.00;98076.83;1454551;88;22004;-80
2023/12/23 01:39:52;;;;;;;2.40;1.17;;;;;;;2.22;100.00;98077.95;1454854;89;22083;-79
2023/12/23 01:42:19;;;;;;;3.20;1.10;;;;;;;2.22;100.00;98077.95;1448232;89;21990;-78
2023/12/23 01:44:45;;;;;;;1.30;1.03;;;;;;;2.25;100.00;98075.04;1445476;89;22627;-80
2023/12/23 01:47:12;;;;;;;1.90;0.93;;;;;;;2.24;100.00;98064.27;1455854;89;22195;-79
2023/12/23 01:49:42;;;;;;;3.60;1.50;;;;;;;2.24;100.00;98076.02;1458137;89;22815;-79
2023/12/23 01:52:08;;;;;;;1.30;0.73;;;;;;;2.18;100.00;98062.73;1451447;88;22975;-78
2023/12/23 01:54:35;;;;;;;2.13;0.80;;;;;;;2.24;100.00;98076.48;1437371;90;22274;-78
2023/12/23 01:57:01;;;;;;;2.87;1.63;;;;;;;2.24;100.00;98076.48;1452288;89;22123;-79
2023/12/23 01:59:28;;;;;;;1.97;1.20;;;;;;;2.25;100.00;98052.85;1443333;89;22360;-79
2023/12/23 02:01:57;;;;;;;4.90;0.80;;;;;;;2.21;100.00;98048.89;1454865;89;21849;-79
2023/12/23 02:04:24;;;;;;;1.40;0.70;;;;;;;2.28;100.00;98054.83;1440973;89;22294;-79
2023/12/23 02:06:50;;;;;;;1.00;0.80;;;;;;;2.29;100.00;98046.83;1447014;89;22640;-80
2023/12/23 02:09:16;;;;;;;1.37;1.00;;;;;;;2.28;100.00;98062.66;1452391;89;21963;-79
2023/12/23 02:12:19;;;;;;;1.93;0.67;;;;;;;2.28;100.00;98073.92;1452981;89;22986;-79
2023/12/23 02:15:14;;;;;;;4.17;0.57;;;;;;;2.23;100.00;98066.53;1445791;89;22037;-80
2023/12/23 02:17:40;;;;;;;1.03;0.70;;;;;;;2.29;100.00;98079.46;1449889;88;22124;-79
2023/12/23 02:20:08;;;;;;;2.47;1.00;;;;;;;2.29;100.00;98081.25;1455879;89;22040;-77
2023/12/23 02:22:35;;;;;;;1.07;0.60;;;;;;;2.22;100.00;98066.70;1449241;89;22057;-78
2023/12/23 02:25:01;;;;;;;1.07;0.50;;;;;;;2.22;100.00;98066.70;1453259;89;22142;-78
2023/12/23 02:27:35;;;;;;;0.20;0.20;;;;;;;2.26;100.00;98067.53;1455573;89;22068;-78
2023/12/23 02:30:02;;;;;;;0.70;0.63;;;;;;;2.23;100.00;98050.87;1447590;89;22116;-78
2023/12/23 02:32:31;;;;;;;1.40;0.40;;;;;;;2.23;100.00;98050.87;1445519;89;21862;-79
2023/12/23 02:34:57;;;;;;;0.73;0.60;;;;;;;2.23;100.00;98045.66;1435822;89;23026;-79
2023/12/23 02:37:23;;;;;;;0.67;0.40;;;;;;;2.20;100.00;98038.12;1456472;89;21828;-78
2023/12/23 02:39:49;;;;;;;0.37;0.30;;;;;;;2.15;100.00;98045.59;1441178;90;22189;-78
2023/12/23 02:42:15;;;;;;;0.73;0.27;;;;;;;2.13;100.00;98054.08;1460917;89;21929;-79
2023/12/23 02:44:42;;;;;;;0.30;0.30;;;;;;;2.09;100.00;98061.05;1451377;89;22144;-78
2023/12/23 02:47:08;;;;;;;1.43;0.40;;;;;;;2.05;100.00;98067.06;1455612;89;22651;-78
2023/12/23 02:49:34;;;;;;;2.10;0.30;;;;;;;2.07;100.00;98053.35;1449457;89;22052;-79
2023/12/23 02:52:00;;;;;;;1.53;0.90;;;;;;;2.07;100.00;98049.93;1442569;88;21368;-79
2023/12/23 02:54:26;;;;;;;0.93;0.43;;;;;;;2.03;100.00;98055.95;1449613;89;22351;-79
2023/12/23 02:56:52;;;;;;;0.70;0.40;;;;;;;1.96;100.00;98081.83;1448835;89;22027;-80
2023/12/23 02:59:19;;;;;;;1.30;0.83;;;;;;;1.93;100.00;98074.80;1456597;89;21781;-78
2023/12/23 03:01:45;;;;;;;0.40;0.37;;;;;;;1.93;100.00;98074.80;1457104;89;22719;-78
2023/12/23 03:04:11;;;;;;;1.23;0.40;;;;;;;1.92;100.00;98075.74;1451446;89;22071;-79
2023/12/23 03:06:37;;;;;;;0.90;0.63;;;;;;;1.85;100.00;98066.89;1448081;89;22803;-77
2023/12/23 03:09:03;;;;;;;0.57;0.40;;;;;;;1.82;100.00;98072.41;1449916;89;21841;-77
2023/12/23 03:11:30;;;;;;;0.97;0.60;;;;;;;1.82;100.00;98094.09;1451686;89;21796;-78
2023/12/23 03:13:56;;;;;;;0.67;0.60;;;;;;;1.73;100.00;98099.72;1454577;89;21970;-79
2023/12/23 03:16:22;;;;;;;0.43;0.40;;;;;;;1.73;100.00;98112.75;1438910;89;21937;-78
2023/12/23 03:18:49;;;;;;;0.60;0.40;;;;;;;1.69;100.00;98114.00;1452150;89;21976;-78
2023/12/23 03:21:15;;;;;;;0.57;0.40;;;;;;;1.71;100.00;98136.03;1447620;89;22766;-78
2023/12/23 03:23:41;;;;;;;1.43;0.43;;;;;;;1.63;100.00;98128.94;1447943;89;22008;-79
2023/12/23 03:26:07;;;;;;;0.93;0.83;;;;;;;1.66;100.00;98141.67;1450496;89;21805;-78
2023/12/23 03:28:34;;;;;;;0.57;0.53;;;;;;;1.61;100.00;98135.26;1455511;89;21921;-78
2023/12/23 03:31:00;;;;;;;0.40;0.33;;;;;;;1.61;100.00;98141.29;1453576;89;23782;-79
2023/12/23 03:33:26;;;;;;;0.40;0.40;;;;;;;1.61;100.00;98141.29;1446807;89;22137;-79
2023/12/23 03:35:52;;;;;;;0.60;0.50;;;;;;;1.62;100.00;98132.52;1433967;90;21697;-79
2023/12/23 03:38:18;;;;;;;0.40;0.40;;;;;;;1.62;100.00;98140.34;1455380;89;21828;-79
2023/12/23 03:40:44;;;;;;;0.60;0.57;;;;;;;1.60;100.00;98152.70;1456400;89;21769;-79
2023/12/23 03:43:10;;;;;;;0.63;0.53;;;;;;;1.53;100.00;98148.56;1455454;88;21951;-79
2023/12/23 03:45:38;;;;;;;0.67;0.50;;;;;;;1.48;100.00;98146.05;1459607;89;21842;-79
2023/12/23 03:48:06;;;;;;;0.70;0.60;;;;;;;1.48;100.00;98146.05;1443709;89;21710;-80
2023/12/23 03:50:32;;;;;;;0.63;0.60;;;;;;;1.47;100.00;98163.97;1458347;89;21740;-79
2023/12/23 03:52:59;;;;;;;0.73;0.67;;;;;;;1.42;100.00;98159.67;1449222;90;21806;-79
2023/12/23 03:55:29;;;;;;;0.70;0.60;;;;;;;1.38;100.00;98153.09;1447206;89;21678;-79
2023/12/23 03:57:53;;;;;;;1.53;0.93;;;;;;;1.27;100.00;98140.60;1455214;89;22251;-79
2023/12/23 04:00:19;;;;;;;2.30;1.07;;;;;;;1.27;100.00;98140.60;1445948;89;22032;-79
2023/12/23 04:02:45;;;;;;;1.77;1.17;;;;;;;1.28;100.00;98161.77;1446402;89;21827;-78
2023/12/23 04:05:11;;;;;;;1.30;1.20;;;;;;;1.23;100.00;98173.11;1450411;89;21651;-78
2023/12/23 04:07:38;;;;;;;1.27;1.00;;;;;;;1.21;100.00;98186.78;1445040;89;21763;-79
2023/12/23 04:10:04;;;;;;;1.43;1.20;;;;;;;1.18;100.00;98209.67;1433100;89;21829;-78
2023/12/23 04:12:30;;;;;;;1.93;1.50;;;;;;;1.19;100.00;98209.55;1432610;90;22625;-77
2023/12/23 04:14:56;;;;;;;2.13;1.70;;;;;;;1.16;100.00;98198.11;1448637;89;21759;-78
2023/12/23 04:17:23;;;;;;;2.47;1.13;;;;;;;1.15;100.00;98187.81;1448833;89;21795;-78
2023/12/23 04:19:50;;;;;;;2.33;1.20;;;;;;;1.12;100.00;98173.28;1450116;89;22072;-78
2023/12/23 04:22:17;;;;;;;2.20;1.40;;;;;;;1.04;100.00;98162.78;1457369;89;21615;-79
2023/12/23 04:24:43;;;;;;;2.70;1.27;;;;;;;1.04;100.00;98162.78;1453699;89;21696;-78
2023/12/23 04:27:09;;;;;;;1.70;1.10;;;;;;;1.03;100.00;98168.94;1434468;89;22499;-79
2023/12/23 04:29:35;;;;;;;2.23;1.33;;;;;;;1.02;100.00;98172.52;1452781;89;21686;-78
2023/12/23 04:32:04;;;;;;;2.03;1.47;;;;;;;0.97;100.00;98174.72;1445950;89;21760;-79
2023/12/23 04:34:29;;;;;;;2.50;1.57;;;;;;;0.95;100.00;98171.42;1463515;89;21858;-78
2023/12/23 04:36:55;;;;;;;2.27;1.50;;;;;;;0.94;100.00;98164.58;1459972;89;21532;-77
2023/12/23 04:39:21;;;;;;;2.83;1.63;;;;;;;0.94;100.00;98165.88;1457504;89;22430;-77
2023/12/23 04:41:48;;;;;;;5.30;1.73;;;;;;;0.89;100.00;98181.92;1448271;89;21514;-77
2023/12/23 04:44:15;;;;;;;2.97;1.77;;;;;;;0.89;100.00;98181.92;1455162;88;21667;-79
2023/12/23 04:46:42;;;;;;;2.50;1.60;;;;;;;0.86;100.00;98185.66;1452329;89;21656;-78
2023/12/23 04:49:09;;;;;;;2.87;1.53;;;;;;;0.82;100.00;98185.58;1462395;89;21664;-79
2023/12/23 04:51:35;;;;;;;2.93;1.90;;;;;;;0.80;100.00;98189.28;1451771;89;21627;-79
2023/12/23 04:54:01;;;;;;;4.97;1.87;;;;;;;0.78;100.00;98193.34;1450751;89;21673;-78
2023/12/23 04:56:28;;;;;;;3.00;1.90;;;;;;;0.76;100.00;98204.38;1444757;89;21701;-78
2023/12/23 04:58:56;;;;;;;2.67;1.43;;;;;;;0.74;100.00;98210.19;1446560;89;21605;-78
2023/12/23 05:01:25;;;;;;;4.20;2.53;;;;;;;0.73;100.00;98229.39;1456240;89;21546;-78
2023/12/23 05:03:51;;;;;;;2.93;1.60;;;;;;;0.73;100.00;98229.39;1456929;89;21845;-78
2023/12/23 05:06:18;;;;;;;2.73;1.77;;;;;;;0.74;100.00;98240.63;1460794;89;22525;-78
2023/12/23 05:08:44;;;;;;;2.83;1.77;;;;;;;0.73;100.00;98243.71;1468931;89;21626;-78
2023/12/23 05:11:10;;;;;;;2.40;1.73;;;;;;;0.74;100.00;98250.55;1462748;89;21495;-78
2023/12/23 05:13:36;;;;;;;2.70;1.40;;;;;;;0.73;100.00;98259.33;1459978;89;22410;-78
2023/12/23 05:16:03;;;;;;;3.50;1.60;;;;;;;0.71;100.00;98253.92;1449100;89;22319;-78
2023/12/23 05:18:29;;;;;;;2.20;1.47;;;;;;;0.67;100.00;98265.91;1445287;89;22631;-78
2023/12/23 05:20:56;;;;;;;1.47;1.13;;;;;;;0.66;100.00;98254.31;1457369;89;21604;-78
2023/12/23 05:23:22;;;;;;;3.23;1.87;;;;;;;0.66;100.00;98241.30;1455465;89;21532;-78
2023/12/23 05:25:50;;;;;;;3.13;1.40;;;;;;;0.66;100.00;98230.89;1451238;89;21503;-78
2023/12/23 05:28:17;;;;;;;2.77;1.63;;;;;;;0.64;100.00;98228.44;1455392;89;21603;-77
2023/12/23 05:30:43;;;;;;;2.40;1.67;;;;;;;0.64;100.00;98241.45;1458162;89;22849;-79
2023/12/23 05:33:09;;;;;;;6.30;2.40;;;;;;;0.63;100.00;98246.78;1452759;88;21818;-78
2023/12/23 05:35:35;;;;;;;2.83;1.60;;;;;;;0.62;100.00;98251.66;1452902;89;22468;-79
2023/12/23 05:38:01;;;;;;;2.77;1.77;;;;;;;0.60;100.00;98254.87;1450730;89;22083;-78
2023/12/23 05:40:27;;;;;;;3.67;1.80;;;;;;;0.57;100.00;98262.96;1426118;89;21789;-78
2023/12/23 05:42:53;;;;;;;3.90;1.73;;;;;;;0.55;100.00;98266.20;1457708;89;21532;-79
2023/12/23 05:45:19;;;;;;;3.87;1.40;;;;;;;0.53;100.00;98274.62;1444807;89;22373;-78
2023/12/23 05:47:48;;;;;;;2.00;1.07;;;;;;;0.52;100.00;98280.77;1454933;89;21685;-77
2023/12/23 05:50:14;;;;;;;1.57;1.10;;;;;;;0.50;100.00;98282.70;1456753;89;21681;-78
2023/12/23 05:52:40;;;;;;;7.97;2.80;;;;;;;0.50;100.00;98276.19;1461750;89;21509;-76
2023/12/23 05:55:08;;;;;;;5.93;1.83;;;;;;;0.46;100.00;98286.03;1452472;89;21611;-79
2023/12/23 05:57:34;;;;;;;1.13;0.90;;;;;;;0.47;100.00;98290.78;1455680;89;21776;-76
2023/12/23 06:00:00;;;;;;;3.83;2.60;;;;;;;0.47;100.00;98298.11;1450558;89;21576;-77
2023/12/23 06:02:28;;;;;;;2.27;1.40;;;;;;;0.42;100.00;98290.69;1452054;89;23049;-78
2023/12/23 06:04:54;;;;;;;0.90;0.80;;;;;;;0.48;100.00;98308.03;1455216;89;21604;-78
2023/12/23 06:07:21;;;;;;;1.63;1.13;;;;;;;0.52;100.00;98310.70;1463271;89;21473;-76
2023/12/23 06:09:46;;;;;;;0.90;0.90;;;;;;;0.53;100.00;98321.47;1449107;89;21714;-76
2023/12/23 06:12:13;;;;;;;1.27;0.83;;;;;;;0.54;100.00;98325.70;1451104;89;21561;-76
2023/12/23 06:14:41;;;;;;;3.63;1.10;;;;;;;0.54;100.00;98325.70;1452921;89;22095;-76
2023/12/23 06:17:08;;;;;;;1.57;1.30;;;;;;;0.58;100.00;98333.13;1451459;89;21770;-76
2023/12/23 06:19:34;;;;;;;4.03;0.83;;;;;;;0.60;100.00;98323.86;1444143;89;22540;-76
2023/12/23 06:22:00;;;;;;;1.00;0.80;;;;;;;0.60;100.00;98322.07;1446727;89;21723;-78
2023/12/23 06:24:27;;;;;;;2.20;0.73;;;;;;;0.62;100.00;98329.28;1443805;89;22191;-77
2023/12/23 06:26:53;;;;;;;1.50;0.90;;;;;;;0.63;100.00;98343.11;1469591;89;22578;-76
2023/12/23 06:29:19;;;;;;;1.27;0.67;;;;;;;0.63;100.00;98346.56;1454469;89;21534;-76
2023/12/23 06:31:45;;;;;;;1.50;0.80;;;;;;;0.65;100.00;98343.33;1445733;89;21678;-75
2023/12/23 06:34:11;;;;;;;1.03;0.80;;;;;;;0.69;100.00;98338.66;1452989;89;22543;-76
2023/12/23 06:36:37;;;;;;;1.43;1.20;;;;;;;0.72;100.00;98360.55;1457686;89;21603;-76
2023/12/23 06:39:04;;;;;;;0.63;0.60;;;;;;;0.76;100.00;98380.14;1453264;89;21648;-75
2023/12/23 06:41:30;;;;;;;5.63;1.17;;;;;;;0.79;100.00;98385.56;1463064;89;23191;-76
2023/12/23 06:43:56;;;;;;;3.13;1.10;;;;;;;0.84;100.00;98386.80;1460782;89;21590;-76
2023/12/23 06:46:22;;;;;;;1.63;1.27;;;;;;;0.90;100.00;98395.85;1460335;89;21595;-76
2023/12/23 06:48:51;;;;;;;2.80;1.07;;;;;;;0.94;100.00;98397.70;1461593;89;21709;-76
2023/12/23 06:51:17;;;;;;;2.47;1.40;;;;;;;0.97;100.00;98403.94;1460073;89;21753;-75
2023/12/23 06:53:43;;;;;;;2.57;1.43;;;;;;;1.00;100.00;98410.17;1449436;89;21813;-76
2023/12/23 06:56:11;;;;;;;1.23;0.80;;;;;;;1.02;100.00;98410.38;1437500;89;22005;-76
2023/12/23 06:58:38;;;;;;;1.70;0.90;;;;;;;1.06;100.00;98427.86;1451015;89;21807;-75
2023/12/23 07:01:04;;;;;;;2.03;0.83;;;;;;;1.07;100.00;98435.55;1448818;89;21712;-75
2023/12/23 07:03:31;;;;;;;2.10;1.10;;;;;;;1.11;100.00;98432.19;1453320;89;21743;-76
2023/12/23 07:05:57;;;;;;;2.10;1.30;;;;;;;1.13;100.00;98441.52;1453020;89;21869;-76
2023/12/23 07:08:24;;;;;;;1.20;1.00;;;;;;;1.20;100.00;98444.88;1448230;89;21705;-77
2023/12/23 07:10:50;;;;;;;2.13;1.40;;;;;;;1.21;100.00;98452.58;1457254;89;21902;-75
2023/12/23 07:13:17;;;;;;;1.10;0.80;;;;;;;1.21;100.00;98452.58;1452572;89;22382;-75
2023/12/23 07:15:43;;;;;;;2.70;1.00;;;;;;;1.24;100.00;98459.30;1456299;89;23442;-76
2023/12/23 07:18:10;;;;;;;0.80;0.80;;;;;;;1.25;100.00;98458.33;1451987;89;21836;-75
2023/12/23 07:20:39;;;;;;;1.73;1.13;;;;;;;1.31;100.00;98489.06;1450749;89;21724;-76
2023/12/23 07:23:05;;;;;;;1.47;1.23;;;;;;;1.31;100.00;98489.06;1452225;89;21808;-75
2023/12/23 07:25:31;;;;;;;2.17;1.37;;;;;;;1.34;100.00;98479.17;1461464;89;21838;-76
2023/12/23 07:27:57;;;;;;;2.03;1.13;;;;;;;1.40;100.00;98480.41;1461723;89;21785;-76
2023/12/23 07:30:23;;;;;;;2.07;1.53;;;;;;;1.44;100.00;98500.05;1450892;89;22051;-75
2023/12/23 07:32:49;;;;;;;1.33;1.10;;;;;;;1.53;100.00;98510.14;1454390;89;22082;-75
2023/12/23 07:35:15;;;;;;;1.97;1.00;;;;;;;1.53;100.00;98510.14;1457740;89;22138;-76
2023/12/23 07:37:41;;;;;;;2.43;1.50;;;;;;;1.55;100.00;98496.46;1451390;89;21840;-75
2023/12/23 07:40:09;;;;;;;4.53;2.10;;;;;;;1.55;100.00;98496.46;1454912;89;22053;-76
2023/12/23 07:42:35;;;;;;;5.10;2.50;;;;;;;1.61;100.00;98506.34;1380187;89;21807;-76
2023/12/23 07:45:02;;;;;;;5.87;2.97;;;;;;;1.59;100.00;98518.71;1381551;89;22702;-76
2023/12/23 07:47:28;;;;;;;10.13;5.13;;;;;;;1.57;100.00;98529.75;1387576;89;22120;-75
2023/12/23 07:49:54;;;;;;;19.03;10.73;;;;;;;1.58;100.00;98554.40;1381499;89;21764;-75
2023/12/23 07:52:20;;;;;;;4.30;2.50;;;;;;;1.65;100.00;98562.49;1381629;89;21853;-75
2023/12/23 07:54:47;;;;;;;3.33;2.40;;;;;;;1.65;100.00;98554.67;1388048;89;21812;-74
2023/12/23 07:57:13;;;;;;;5.77;2.13;;;;;;;1.73;100.00;98567.03;1381643;89;22348;-75
2023/12/23 07:59:40;;;;;;;3.80;2.03;;;;;;;1.78;100.00;98590.45;1381907;89;22016;-75
2023/12/23 08:02:06;;;;;;;2.10;1.27;;;;;;;1.82;100.00;98611.03;1380936;89;21951;-76
2023/12/23 08:04:32;;;;;;;2.33;1.50;;;;;;;1.70;100.00;98640.34;1381598;89;22853;-76
2023/12/23 08:06:58;;;;;;;3.07;1.93;;;;;;;1.70;100.00;98640.34;1382007;89;21950;-75
2023/12/23 08:09:25;;;;;;;2.23;1.20;;;;;;;1.73;100.00;98656.53;1369650;90;21966;-75
2023/12/23 08:11:51;;;;;;;3.80;1.10;;;;;;;1.78;100.00;98666.54;1381746;89;22798;-76
2023/12/23 08:14:17;;;;;;;2.60;1.40;;;;;;;1.78;100.00;98681.73;1381560;89;22067;-75
2023/12/23 08:16:43;;;;;;;4.00;2.67;;;;;;;1.77;100.00;98676.16;1387801;89;21828;-76
2023/12/23 08:19:09;;;;;;;3.83;2.60;;;;;;;1.87;100.00;98704.04;1538077;89;21864;-76
2023/12/23 08:21:36;;;;;;;4.67;2.30;;;;;;;1.87;100.00;98704.04;1381597;89;21738;-75
2023/12/23 08:24:03;;;;;;;3.60;1.87;;;;;;;1.87;100.00;98734.89;1381604;89;22958;-75
2023/12/23 08:26:30;;;;;;;2.40;1.40;;;;;;;1.75;100.00;98786.31;1380329;89;21884;-75
2023/12/23 08:28:56;;;;;;;3.10;1.90;;;;;;;1.49;100.00;98743.39;1381481;89;22977;-76
2023/12/23 08:31:22;;;;;;;1.60;1.03;;;;;;;1.19;100.00;98741.14;1387533;89;21966;-75
2023/12/23 08:33:48;;;;;;;1.17;0.80;;;;;;;1.19;100.00;98741.14;1518261;89;22103;-75
2023/12/23 08:36:14;;;;;;;0.90;0.67;;;;;;;1.02;100.00;98716.98;1453052;89;22044;-74
2023/12/23 08:38:40;;;;;;;0.67;0.57;;;;;;;1.02;100.00;98716.98;1453239;89;22909;-75
2023/12/23 08:41:07;;;;;;;1.23;0.60;;;;;;;1.01;100.00;98727.06;1447049;89;21859;-74
2023/12/23 08:43:33;;;;;;;1.43;0.50;;;;;;;1.01;100.00;98727.06;1454920;89;21333;-74
2023/12/23 08:45:59;;;;;;;1.43;0.90;;;;;;;0.95;100.00;98732.75;1441708;89;21937;-74
2023/12/23 08:48:25;;;;;;;1.30;0.60;;;;;;;1.00;100.00;98730.11;1449583;89;21871;-74
2023/12/23 08:50:52;;;;;;;4.93;2.67;;;;;;;1.00;100.00;98730.11;1456359;89;22697;-75
2023/12/23 08:53:19;;;;;;;6.73;3.27;;;;;;;1.00;100.00;98735.81;1454919;89;22305;-74
2023/12/23 08:55:45;;;;;;;3.00;1.90;;;;;;;1.05;100.00;98745.38;1453757;89;21857;-76
2023/12/23 08:58:13;;;;;;;13.53;7.07;;;;;;;1.15;100.00;98755.36;1437795;89;21803;-76
2023/12/23 09:00:40;;;;;;;47.43;21.83;;;;;;;1.26;100.00;98760.50;1379163;89;21702;-74
2023/12/23 09:03:06;;;;;;;18.03;7.87;;;;;;;1.26;100.00;98760.50;1381448;89;22720;-77
2023/12/23 09:05:32;;;;;;;80.63;33.43;;;;;;;1.33;100.00;98775.98;1375337;90;21705;-75
2023/12/23 09:07:59;;;;;;;65.30;27.23;;;;;;;1.33;100.00;98775.98;1381656;89;22109;-73
2023/12/23 09:10:26;;;;;;;39.20;18.20;;;;;;;1.38;100.00;98787.31;1427912;89;22085;-74
2023/12/23 09:12:52;;;;;;;42.20;18.97;;;;;;;1.47;100.00;98785.73;1458170;89;21897;-73
2023/12/23 09:15:19;;;;;;;6.63;3.57;;;;;;;1.55;100.00;98802.84;1453893;89;21897;-74
2023/12/23 09:17:45;;;;;;;3.90;2.27;;;;;;;1.54;100.00;98799.89;1450747;89;21902;-74
2023/12/23 09:20:11;;;;;;;3.63;2.40;;;;;;;1.54;100.00;98799.89;1452860;89;22097;-74
2023/12/23 09:22:38;;;;;;;12.70;5.30;;;;;;;1.62;100.00;98792.73;1455434;89;22109;-74
2023/12/23 09:25:04;;;;;;;3.40;1.57;;;;;;;1.64;100.00;98794.26;1453641;89;22137;-74
2023/12/23 09:27:31;;;;;;;10.87;6.33;;;;;;;1.66;100.00;98792.32;1450286;89;21937;-74
2023/12/23 09:29:58;;;;;;;2.93;1.60;;;;;;;1.66;100.00;98809.27;1458590;89;21865;-74
2023/12/23 09:32:24;;;;;;;12.20;6.07;;;;;;;1.65;100.00;98814.16;1460423;89;21865;-74
2023/12/23 09:34:53;;;;;;;9.57;2.97;;;;;;;1.65;100.00;98814.16;1455725;89;22829;-74
2023/12/23 09:37:18;;;;;;;1.40;0.80;;;;;;;1.79;100.00;98813.80;1452818;89;22157;-74
2023/12/23 09:39:45;;;;;;;3.27;1.53;;;;;;;1.94;100.00;98805.62;1453106;89;22103;-75
2023/12/23 09:42:11;;;;;;;5.83;0.70;;;;;;;1.94;100.00;98805.62;1456279;89;22045;-75
2023/12/23 09:44:38;;;;;;;12.17;4.00;;;;;;;2.04;100.00;98811.67;1452053;89;22032;-75
2023/12/23 09:47:05;;;;;;;5.57;2.37;;;;;;;2.14;100.00;98823.47;1456415;89;23171;-74
2023/12/23 09:49:32;;;;;;;8.93;3.17;;;;;;;2.39;100.00;98820.86;1454620;89;22069;-74
2023/12/23 09:51:59;;;;;;;3.70;2.73;;;;;;;2.97;100.00;98809.62;1434651;89;22172;-75
2023/12/23 09:54:27;;;;;;;3.20;1.67;;;;;;;3.00;100.00;98823.71;1455396;89;21568;-75
2023/12/23 09:56:54;;;;;;;2.33;0.93;;;;;;;3.03;100.00;98821.64;1455500;89;21415;-75
2023/12/23 09:59:20;;;;;;;2.37;1.20;;;;;;;3.07;100.00;98833.45;1457329;89;22387;-74
2023/12/23 10:01:47;;;;;;;2.63;1.30;;;;;;;3.07;100.00;98827.41;1459204;89;21384;-74
2023/12/23 10:04:13;;;;;;;2.80;1.20;;;;;;;3.03;100.00;98836.02;1440129;89;21563;-75
2023/12/23 10:06:39;;;;;;;1.60;0.80;;;;;;;2.96;100.00;98830.16;1456158;89;21340;-75
2023/12/23 10:09:10;;;;;;;4.90;2.07;;;;;;;2.97;100.00;98835.75;1451330;89;21857;-74
2023/12/23 10:11:36;;;;;;;2.70;1.98;;;;;;;2.97;100.00;98835.75;1452308;89;21412;-74
2023/12/23 10:14:02;;;;;;;10.20;5.43;;;;;;;2.94;100.00;98819.86;1453344;89;21557;-75
2023/12/23 10:16:29;;;;;;;6.47;3.80;;;;;;;2.96;100.00;98812.69;1449354;89;22228;-75
2023/12/23 10:18:56;;;;;;;2.93;1.60;;;;;;;2.99;100.00;98825.96;1451672;89;21547;-75
2023/12/23 10:21:22;;;;;;;6.80;1.27;;;;;;;2.94;100.00;98811.94;1456179;89;21458;-75
2023/12/23 10:23:48;;;;;;;3.60;2.70;;;;;;;2.90;100.00;98811.94;1450655;89;21547;-75
2023/12/23 10:26:15;;;;;;;2.43;1.50;;;;;;;2.97;100.00;98822.20;1451569;89;21385;-75
2023/12/23 10:28:43;;;;;;;10.30;3.00;;;;;;;3.01;100.00;98809.18;1453936;89;21533;-75
2023/12/23 10:31:13;;;;;;;5.40;2.50;;;;;;;3.01;100.00;98799.22;1456956;89;21297;-74
2023/12/23 10:33:44;;;;;;;14.97;6.97;;;;;;;2.99;100.00;98791.50;1450638;89;21477;-75
2023/12/23 10:36:13;;;;;;;4.23;2.00;;;;;;;3.03;100.00;98803.34;1452455;89;21400;-74
2023/12/23 10:38:44;;;;;;;5.37;1.97;;;;;;;2.96;100.00;98791.78;1461243;89;21378;-75
2023/12/23 10:41:55;;;;;;;7.70;4.45;;;;;;;2.96;100.00;98791.78;1460326;89;21378;-75
2023/12/23 10:44:22;;;;;;;3.42;1.92;;;;;;;2.97;100.00;98787.41;1453179;89;21363;-75
2023/12/23 10:46:51;;;;;;;4.20;2.53;;;;;;;2.96;100.00;98785.73;1455163;89;22278;-75
2023/12/23 10:49:21;;;;;;;3.50;1.90;;;;;;;2.96;100.00;98782.63;1451743;89;22971;-75
2023/12/23 10:51:49;;;;;;;6.23;2.20;;;;;;;2.94;100.00;98805.82;1444912;89;21356;-75
2023/12/23 10:54:15;;;;;;;14.40;5.37;;;;;;;2.95;100.00;98805.82;1444238;89;22331;-76
2023/12/23 10:56:43;;;;;;;5.63;2.63;;;;;;;2.99;100.00;98798.03;1447805;89;21533;-76
2023/12/23 10:59:10;;;;;;;3.83;1.93;;;;;;;2.99;100.00;98798.03;1450714;89;21406;-75
2023/12/23 11:01:40;;;;;;;4.43;2.50;;;;;;;2.98;100.00;98780.71;1458604;89;21325;-75
2023/12/23 11:04:06;;;;;;;3.40;1.53;;;;;;;3.09;100.00;98796.73;1454561;89;22040;-75
2023/12/23 11:06:37;;;;;;;9.73;4.07;;;;;;;3.02;100.00;98778.18;1425146;89;22024;-75
2023/12/23 11:09:06;;;;;;;4.20;2.92;;;;;;;3.02;100.00;98778.18;1459595;89;21400;-73
2023/12/23 11:11:33;;;;;;;3.00;1.70;;;;;;;3.08;100.00;98785.46;1461339;89;21594;-72
2023/12/23 11:13:59;;;;;;;1.97;1.20;;;;;;;3.09;100.00;98778.00;1449718;89;21341;-72
2023/12/23 11:16:26;;;;;;;3.10;2.17;;;;;;;3.13;100.00;98766.23;1438725;89;21377;-73
2023/12/23 11:18:52;;;;;;;7.20;1.90;;;;;;;3.19;100.00;98774.48;1450732;89;22323;-72
2023/12/23 11:21:19;;;;;;;3.90;2.17;;;;;;;3.21;100.00;98766.36;1442752;89;21437;-72
2023/12/23 11:23:47;;;;;;;4.10;2.07;;;;;;;3.22;100.00;98766.36;1446837;89;21362;-73
2023/12/23 11:26:39;;;;;;;6.63;2.07;;;;;;;3.21;100.00;98762.11;1464354;89;22932;-73
2023/12/23 11:29:07;;;;;;;6.27;1.73;;;;;;;3.12;100.00;98752.02;1454779;89;21475;-75
2023/12/23 11:31:33;;;;;;;4.53;2.23;;;;;;;3.05;100.00;98733.47;1463458;89;22405;-75